Denver, Colorado
Traffic Map
Current Weather Conditions
Denver, Colorado
Broken Clouds
Broken Clouds
34°
Feels Like: 26°
Wind Chill: 26° Ceiling: 22000
Heat Index: 34° Visibility: 10mi
Dew Point: 24° Wind: 10mph
Humidity: 68% Direction: 140° (SE)
Pressure: 30.34in Gusts: 0mph
Raw Report DataKBKF 090258Z 14009KT 10SM FEW140 BKN220 01/M04 A3034 RMK AO2A SLP289 T00091044 51004
Traffic Incident Summary
Active as of:
Severity:
Category:
InformationThere was an issue retrieving the traffic information for this location. Please try a different location or try again shortly.
Advertisements
Track Severe Weather on mobile